AirNav   ProFlight Series 2 Aviation Headset
 
 1062 users online  

28M Cranland Airport
Hanson, Massachusetts, USA

GOING TO HANSON?


FAA INFORMATION EFFECTIVE 13 AUGUST 2020

Location

FAA Identifier: 28M
Lat/Long: 42-01-30.5000N 070-50-17.2000W
42-01.508333N 070-50.286667W
42.0251389,-70.8381111
(estimated)
Elevation: 71 ft. / 22 m (estimated)
Variation: 16W (1985)
From city: 3 miles SE of HANSON, MA
Time zone: UTC -4 (UTC -5 during Standard Time)
Zip code: 02341

Airport Operations

Airport use: Open to the public
Activation date: 03/1961
Control tower: no
ARTCC: BOSTON CENTER
FSS: BRIDGEPORT FLIGHT SERVICE STATION
NOTAMs facility: BDR (NOTAM-D service available)
Attendance: MON-FRI IREG
Wind indicator: yes
Segmented circle: no

Airport Communications

CTAF: 122.9
WX AWOS-3 at GHG (9 nm NE): 120.0 (781-837-0555)
WX ASOS at PYM (9 nm SE): 135.625 (508-746-8003)
WX ASOS at TAN (12 nm SW): 132.675 (508-824-5005)
WX ASOS at OWD (18 nm NW): 119.95 (781-762-4314)
  • CLNC DLVY THRU BRIDGEPORT RADIO (BDR) 1-866-293-5149.

Nearby radio navigation aids

VOR radial/distance  VOR name  Freq  Var
BOSr177/21.0BOSTON VOR/DME112.7016W
PVDr070/32.0PROVIDENCE VOR/DME115.6014W
LFVr287/35.7MARCONI VOR/DME114.7016W
MVYr000/39.1MARTHAS VINEYARD VOR/DME114.5015W

 
NDB name  Hdg/Dist  Freq  Var  ID
STOGE129/14.139715WOW --- .--
PROVINCETOWN281/27.538916WPVC .--. ...- -.-.

Airport Services

Parking: tiedowns
Airframe service: NONE
Powerplant service: NONE

Runway Information

Runway 18/36

Dimensions: 1760 x 60 ft. / 536 x 18 m
Surface: asphalt, in good condition
Weight bearing capacity: 
Single wheel: 8.0
RUNWAY 18  RUNWAY 36
Latitude: 42-01.647880N42-01.368988N
Longitude: 070-50.338937W070-50.233098W
Elevation: 70.5 ft.69.6 ft.
Traffic pattern: leftleft
Obstructions: 60 ft. trees, 1000 ft. from runway, 130 ft. both sides of centerline, 14:1 slope to clear60 ft. trees, 800 ft. from runway, 125 ft. both sides of centerline, 10:1 slope to clear

Airport Ownership and Management from official FAA records

Ownership: Privately-owned
Owner: CRANLAND INC.
1044 PLYMOUTH STREET
EAST BRIDGEWATER, MA 02333
Phone 508-378-7134
Manager: PETER OAKLEY
1044 PLYMOUTH STREET
EAST BRIDGEWATER, MA 02333
Phone 508-378-7134

Airport Operational Statistics

Aircraft based on the field: 31
Single engine airplanes: 26
Ultralights: 5
    
Aircraft operations: avg 93/week *
82% local general aviation
16% transient general aviation
2% military
* for 12-month period ending 29 April 2020

Additional Remarks

FOR CD CTC BOSTON APCH AT 603-594-5551.
WILDLIFE ON & INVOF ARPT.

Instrument Procedures

There are no published instrument procedures at 28M.

Some nearby airports with instrument procedures:

KGHG - Marshfield Municipal Airport - George Harlow Field (9 nm NE)
KPYM - Plymouth Municipal Airport (9 nm SE)
KTAN - Taunton Municipal Airport - King Field (12 nm SW)
1B9 - Mansfield Municipal Airport (16 nm W)
KOWD - Norwood Memorial Airport (18 nm NW)
 
Loc | Ops | Rwys | IFR | FBO | Links
Com | Nav | Svcs | Stats | Notes
Area around 28M (Cranland Airport)
 
Road maps at: MapQuest Bing Google
 
Aerial photo
WARNING: Photo may not be current or correct
Aerial photo of 28M (Cranland Airport)
Photo by Barry Turner, from Charlie and Greg's Arrow
Photo taken 08-Dec-2008
View looking north showing surrounding cranberry bogs

Do you have a better or more recent aerial photo of Cranland Airport that you would like to share? If so, please send us your photo.

 
Sectional chart

 
Airport distance calculator
Flying to Cranland Airport? Find the distance to fly.

From to 28M

Sunrise and sunset
Times for 13-Aug-2020
 Local
(UTC-4)
 Zulu
(UTC)
Morning civil twilight05:2109:21
Sunrise05:5109:51
Sunset19:4523:45
Evening civil twilight20:1500:15

Current date and time
Zulu (UTC)  14-Aug-2020 02:20:04
Local (UTC-4)  13-Aug-2020 22:20:04
 
METAR
KPYM 
8nm SE 
140152Z AUTO 22003KT 10SM SCT085 22/18 A3008 RMK AO2 SLP186 T02220183
KGHG 
9nm NE 
140155Z AUTO 00000KT 10SM CLR 23/20 A3007 RMK AO2
KTAN 
12nm SW 
140152Z AUTO 00000KT 10SM BKN090 BKN100 22/19 A3008 RMK AO2 SLP184 T02220189
KMQE 
17nm NW 
140151Z AUTO 20005KT 24/14 A3010 RMK AO1 SLP196 T02390139
KOWD 
17nm NW 
140153Z 00000KT 10SM CLR 21/17 A3008 RMK AO2 SLP185 T02110172
TAF
NOTAMs
Click for the latest NOTAMs
NOTAMs are issued by the DoD/FAA and will open in a separate window not controlled by AirNav.

 

 
 

Would you like to see your business listed on this page?

 If your business provides an interesting product or service to pilots, flight crews, aircraft, or users of the Cranland Airport, you should consider listing it here.  To start the listing process, click on the button below
 
Add a business
 

Other Pages about Cranland Airport

Update a link
 
Copyright © AirNav, LLC. All rights reserved. Privacy Policy  Contact